sensor_id;sensor_type;location;lat;lon;timestamp;P1;durP1;ratioP1;P2;durP2;ratioP2
43883;SDS011;29544;52.018;5.810;2023-04-23T00:00:33;5.63;;;5.03;;
43883;SDS011;29544;52.018;5.810;2023-04-23T00:03:01;5.95;;;5.35;;
43883;SDS011;29544;52.018;5.810;2023-04-23T00:05:33;6.45;;;5.22;;
43883;SDS011;29544;52.018;5.810;2023-04-23T00:08:00;7.10;;;6.10;;
43883;SDS011;29544;52.018;5.810;2023-04-23T00:12:52;8.25;;;6.13;;
43883;SDS011;29544;52.018;5.810;2023-04-23T00:15:18;7.28;;;6.25;;
43883;SDS011;29544;52.018;5.810;2023-04-23T00:17:46;7.10;;;5.63;;
43883;SDS011;29544;52.018;5.810;2023-04-23T00:20:11;7.47;;;6.53;;
43883;SDS011;29544;52.018;5.810;2023-04-23T00:22:37;7.13;;;5.45;;
43883;SDS011;29544;52.018;5.810;2023-04-23T00:25:03;7.53;;;6.33;;
43883;SDS011;29544;52.018;5.810;2023-04-23T00:27:29;6.65;;;5.70;;
43883;SDS011;29544;52.018;5.810;2023-04-23T00:29:54;6.50;;;5.63;;
43883;SDS011;29544;52.018;5.810;2023-04-23T00:32:20;7.90;;;6.40;;
43883;SDS011;29544;52.018;5.810;2023-04-23T00:34:46;8.10;;;6.80;;
43883;SDS011;29544;52.018;5.810;2023-04-23T00:37:15;7.50;;;6.63;;
43883;SDS011;29544;52.018;5.810;2023-04-23T00:39:41;7.95;;;6.60;;
43883;SDS011;29544;52.018;5.810;2023-04-23T00:42:07;7.85;;;6.35;;
43883;SDS011;29544;52.018;5.810;2023-04-23T00:44:36;7.18;;;6.32;;
43883;SDS011;29544;52.018;5.810;2023-04-23T00:47:03;8.45;;;6.80;;
43883;SDS011;29544;52.018;5.810;2023-04-23T00:49:32;7.93;;;6.45;;
43883;SDS011;29544;52.018;5.810;2023-04-23T00:51:58;7.95;;;6.95;;
43883;SDS011;29544;52.018;5.810;2023-04-23T00:54:27;7.80;;;6.55;;
43883;SDS011;29544;52.018;5.810;2023-04-23T00:56:53;8.57;;;6.57;;
43883;SDS011;29544;52.018;5.810;2023-04-23T01:01:45;7.95;;;6.80;;
43883;SDS011;29544;52.018;5.810;2023-04-23T01:04:12;9.23;;;7.00;;
43883;SDS011;29544;52.018;5.810;2023-04-23T01:06:40;8.95;;;6.65;;
43883;SDS011;29544;52.018;5.810;2023-04-23T01:09:06;8.35;;;7.00;;
43883;SDS011;29544;52.018;5.810;2023-04-23T01:11:33;12.10;;;7.53;;
43883;SDS011;29544;52.018;5.810;2023-04-23T01:14:02;9.80;;;7.20;;
43883;SDS011;29544;52.018;5.810;2023-04-23T01:16:28;8.10;;;6.80;;
43883;SDS011;29544;52.018;5.810;2023-04-23T01:18:54;9.53;;;7.87;;
43883;SDS011;29544;52.018;5.810;2023-04-23T01:23:46;7.85;;;6.32;;
43883;SDS011;29544;52.018;5.810;2023-04-23T01:26:12;8.03;;;7.23;;
43883;SDS011;29544;52.018;5.810;2023-04-23T01:28:38;8.25;;;7.38;;
43883;SDS011;29544;52.018;5.810;2023-04-23T01:33:31;9.75;;;7.72;;
43883;SDS011;29544;52.018;5.810;2023-04-23T01:35:57;8.60;;;7.25;;
43883;SDS011;29544;52.018;5.810;2023-04-23T01:38:23;10.13;;;8.32;;
43883;SDS011;29544;52.018;5.810;2023-04-23T01:40:52;8.27;;;7.20;;
43883;SDS011;29544;52.018;5.810;2023-04-23T01:43:18;8.87;;;7.43;;
43883;SDS011;29544;52.018;5.810;2023-04-23T01:45:44;9.02;;;7.18;;
43883;SDS011;29544;52.018;5.810;2023-04-23T01:48:10;10.17;;;8.33;;
43883;SDS011;29544;52.018;5.810;2023-04-23T01:50:36;8.90;;;7.83;;
43883;SDS011;29544;52.018;5.810;2023-04-23T01:53:02;9.57;;;8.48;;
43883;SDS011;29544;52.018;5.810;2023-04-23T01:55:27;9.00;;;7.57;;
43883;SDS011;29544;52.018;5.810;2023-04-23T01:57:53;8.83;;;7.73;;
43883;SDS011;29544;52.018;5.810;2023-04-23T02:00:19;9.45;;;7.70;;
43883;SDS011;29544;52.018;5.810;2023-04-23T02:02:45;8.50;;;7.17;;
43883;SDS011;29544;52.018;5.810;2023-04-23T02:05:12;9.23;;;8.03;;
43883;SDS011;29544;52.018;5.810;2023-04-23T02:07:40;8.38;;;6.82;;
43883;SDS011;29544;52.018;5.810;2023-04-23T02:10:06;8.85;;;7.40;;
43883;SDS011;29544;52.018;5.810;2023-04-23T02:12:32;10.27;;;7.30;;
43883;SDS011;29544;52.018;5.810;2023-04-23T02:14:58;9.07;;;7.70;;
43883;SDS011;29544;52.018;5.810;2023-04-23T02:17:23;9.20;;;8.07;;
43883;SDS011;29544;52.018;5.810;2023-04-23T02:19:49;9.60;;;7.93;;
43883;SDS011;29544;52.018;5.810;2023-04-23T02:22:15;8.23;;;7.20;;
43883;SDS011;29544;52.018;5.810;2023-04-23T02:24:41;8.98;;;7.07;;
43883;SDS011;29544;52.018;5.810;2023-04-23T02:27:08;9.00;;;7.93;;
43883;SDS011;29544;52.018;5.810;2023-04-23T02:29:35;9.18;;;7.93;;
43883;SDS011;29544;52.018;5.810;2023-04-23T02:32:01;8.95;;;7.18;;
43883;SDS011;29544;52.018;5.810;2023-04-23T02:36:52;9.52;;;7.75;;
43883;SDS011;29544;52.018;5.810;2023-04-23T02:39:18;9.13;;;7.50;;
43883;SDS011;29544;52.018;5.810;2023-04-23T02:41:44;11.63;;;7.90;;
43883;SDS011;29544;52.018;5.810;2023-04-23T02:44:10;9.70;;;7.70;;
43883;SDS011;29544;52.018;5.810;2023-04-23T02:46:35;9.17;;;8.17;;
43883;SDS011;29544;52.018;5.810;2023-04-23T02:49:01;8.48;;;7.57;;
43883;SDS011;29544;52.018;5.810;2023-04-23T02:51:27;10.80;;;8.13;;
43883;SDS011;29544;52.018;5.810;2023-04-23T02:53:53;9.03;;;7.73;;
43883;SDS011;29544;52.018;5.810;2023-04-23T02:56:18;9.07;;;7.67;;
43883;SDS011;29544;52.018;5.810;2023-04-23T02:58:44;8.77;;;7.40;;
43883;SDS011;29544;52.018;5.810;2023-04-23T03:01:10;8.80;;;7.70;;
43883;SDS011;29544;52.018;5.810;2023-04-23T03:03:36;8.97;;;7.83;;
43883;SDS011;29544;52.018;5.810;2023-04-23T03:06:02;9.77;;;7.93;;
43883;SDS011;29544;52.018;5.810;2023-04-23T03:08:28;10.57;;;8.10;;
43883;SDS011;29544;52.018;5.810;2023-04-23T03:10:53;8.73;;;7.80;;
43883;SDS011;29544;52.018;5.810;2023-04-23T03:13:19;9.80;;;8.30;;
43883;SDS011;29544;52.018;5.810;2023-04-23T03:15:45;10.37;;;7.77;;
43883;SDS011;29544;52.018;5.810;2023-04-23T03:18:10;9.13;;;7.73;;
43883;SDS011;29544;52.018;5.810;2023-04-23T03:20:36;8.10;;;7.20;;
43883;SDS011;29544;52.018;5.810;2023-04-23T03:23:02;10.30;;;8.37;;
43883;SDS011;29544;52.018;5.810;2023-04-23T03:25:30;10.00;;;7.80;;
43883;SDS011;29544;52.018;5.810;2023-04-23T03:27:56;8.95;;;7.28;;
43883;SDS011;29544;52.018;5.810;2023-04-23T03:30:22;9.33;;;7.53;;
43883;SDS011;29544;52.018;5.810;2023-04-23T03:32:48;9.30;;;7.70;;
43883;SDS011;29544;52.018;5.810;2023-04-23T03:35:14;11.05;;;8.88;;
43883;SDS011;29544;52.018;5.810;2023-04-23T03:37:39;10.57;;;8.10;;
43883;SDS011;29544;52.018;5.810;2023-04-23T03:40:05;8.97;;;8.03;;
43883;SDS011;29544;52.018;5.810;2023-04-23T03:42:31;11.30;;;8.15;;
43883;SDS011;29544;52.018;5.810;2023-04-23T03:44:58;9.07;;;7.43;;
43883;SDS011;29544;52.018;5.810;2023-04-23T03:47:26;9.10;;;7.82;;
43883;SDS011;29544;52.018;5.810;2023-04-23T03:49:52;9.83;;;8.07;;
43883;SDS011;29544;52.018;5.810;2023-04-23T03:52:18;10.02;;;8.40;;
43883;SDS011;29544;52.018;5.810;2023-04-23T03:54:44;8.67;;;7.57;;
43883;SDS011;29544;52.018;5.810;2023-04-23T03:57:09;10.37;;;7.47;;
43883;SDS011;29544;52.018;5.810;2023-04-23T03:59:38;10.43;;;8.38;;
43883;SDS011;29544;52.018;5.810;2023-04-23T04:02:03;11.03;;;8.17;;
43883;SDS011;29544;52.018;5.810;2023-04-23T04:04:30;11.50;;;8.70;;
43883;SDS011;29544;52.018;5.810;2023-04-23T04:06:56;8.00;;;7.18;;
43883;SDS011;29544;52.018;5.810;2023-04-23T04:09:24;8.75;;;7.63;;
43883;SDS011;29544;52.018;5.810;2023-04-23T04:11:50;10.95;;;8.55;;
43883;SDS011;29544;52.018;5.810;2023-04-23T04:14:17;9.05;;;7.75;;
43883;SDS011;29544;52.018;5.810;2023-04-23T04:16:43;8.87;;;7.47;;
43883;SDS011;29544;52.018;5.810;2023-04-23T04:19:09;9.60;;;7.73;;
43883;SDS011;29544;52.018;5.810;2023-04-23T04:21:35;9.07;;;7.63;;
43883;SDS011;29544;52.018;5.810;2023-04-23T04:24:00;8.27;;;7.22;;
43883;SDS011;29544;52.018;5.810;2023-04-23T04:26:27;7.95;;;7.05;;
43883;SDS011;29544;52.018;5.810;2023-04-23T04:28:53;9.90;;;7.40;;
43883;SDS011;29544;52.018;5.810;2023-04-23T04:31:19;8.80;;;7.37;;
43883;SDS011;29544;52.018;5.810;2023-04-23T04:33:46;7.82;;;6.82;;
43883;SDS011;29544;52.018;5.810;2023-04-23T04:36:11;10.73;;;7.90;;
43883;SDS011;29544;52.018;5.810;2023-04-23T04:38:38;9.77;;;7.10;;
43883;SDS011;29544;52.018;5.810;2023-04-23T04:41:04;9.88;;;7.55;;
43883;SDS011;29544;52.018;5.810;2023-04-23T04:43:30;8.35;;;7.43;;
43883;SDS011;29544;52.018;5.810;2023-04-23T04:45:59;8.00;;;7.00;;
43883;SDS011;29544;52.018;5.810;2023-04-23T04:48:25;8.55;;;6.78;;
43883;SDS011;29544;52.018;5.810;2023-04-23T04:50:50;8.07;;;6.57;;
43883;SDS011;29544;52.018;5.810;2023-04-23T04:53:16;8.27;;;7.00;;
43883;SDS011;29544;52.018;5.810;2023-04-23T04:55:41;7.30;;;6.50;;
43883;SDS011;29544;52.018;5.810;2023-04-23T04:58:07;8.47;;;7.03;;
43883;SDS011;29544;52.018;5.810;2023-04-23T05:00:32;8.10;;;6.83;;
43883;SDS011;29544;52.018;5.810;2023-04-23T05:02:58;8.33;;;7.10;;
43883;SDS011;29544;52.018;5.810;2023-04-23T05:05:24;7.57;;;6.27;;
43883;SDS011;29544;52.018;5.810;2023-04-23T05:07:50;8.23;;;6.80;;
43883;SDS011;29544;52.018;5.810;2023-04-23T05:10:18;7.53;;;6.20;;
43883;SDS011;29544;52.018;5.810;2023-04-23T05:12:43;7.20;;;6.30;;
43883;SDS011;29544;52.018;5.810;2023-04-23T05:15:09;7.43;;;6.63;;
43883;SDS011;29544;52.018;5.810;2023-04-23T05:17:39;8.15;;;6.68;;
43883;SDS011;29544;52.018;5.810;2023-04-23T05:20:05;7.43;;;6.38;;
43883;SDS011;29544;52.018;5.810;2023-04-23T05:22:34;7.00;;;6.28;;
43883;SDS011;29544;52.018;5.810;2023-04-23T05:25:00;8.13;;;6.10;;
43883;SDS011;29544;52.018;5.810;2023-04-23T05:27:26;8.57;;;6.87;;
43883;SDS011;29544;52.018;5.810;2023-04-23T05:29:51;6.93;;;5.67;;
43883;SDS011;29544;52.018;5.810;2023-04-23T05:32:17;7.27;;;6.17;;
43883;SDS011;29544;52.018;5.810;2023-04-23T05:34:43;8.47;;;6.03;;
43883;SDS011;29544;52.018;5.810;2023-04-23T05:37:08;6.40;;;5.47;;
43883;SDS011;29544;52.018;5.810;2023-04-23T05:39:34;7.32;;;6.45;;
43883;SDS011;29544;52.018;5.810;2023-04-23T05:42:00;6.97;;;5.83;;
43883;SDS011;29544;52.018;5.810;2023-04-23T05:44:26;6.82;;;5.88;;
43883;SDS011;29544;52.018;5.810;2023-04-23T05:46:52;6.93;;;6.20;;
43883;SDS011;29544;52.018;5.810;2023-04-23T05:49:18;6.63;;;5.97;;
43883;SDS011;29544;52.018;5.810;2023-04-23T05:51:43;7.13;;;5.70;;
43883;SDS011;29544;52.018;5.810;2023-04-23T05:54:09;8.20;;;5.83;;
43883;SDS011;29544;52.018;5.810;2023-04-23T05:56:35;6.60;;;5.17;;
43883;SDS011;29544;52.018;5.810;2023-04-23T05:59:00;5.80;;;5.10;;
43883;SDS011;29544;52.018;5.810;2023-04-23T06:01:26;6.73;;;5.40;;
43883;SDS011;29544;52.018;5.810;2023-04-23T06:03:52;5.82;;;4.97;;
43883;SDS011;29544;52.018;5.810;2023-04-23T06:06:18;6.50;;;5.57;;
43883;SDS011;29544;52.018;5.810;2023-04-23T06:08:43;6.07;;;5.47;;
43883;SDS011;29544;52.018;5.810;2023-04-23T06:11:09;6.20;;;5.57;;
43883;SDS011;29544;52.018;5.810;2023-04-23T06:13:34;5.40;;;4.60;;
43883;SDS011;29544;52.018;5.810;2023-04-23T06:16:04;7.10;;;5.95;;
43883;SDS011;29544;52.018;5.810;2023-04-23T06:18:33;6.32;;;5.43;;
43883;SDS011;29544;52.018;5.810;2023-04-23T06:20:59;7.65;;;5.18;;
43883;SDS011;29544;52.018;5.810;2023-04-23T06:23:28;5.28;;;4.78;;
43883;SDS011;29544;52.018;5.810;2023-04-23T06:25:57;6.78;;;4.78;;
43883;SDS011;29544;52.018;5.810;2023-04-23T06:28:22;5.20;;;4.27;;
43883;SDS011;29544;52.018;5.810;2023-04-23T06:30:48;6.17;;;5.53;;
43883;SDS011;29544;52.018;5.810;2023-04-23T06:33:14;5.63;;;4.60;;
43883;SDS011;29544;52.018;5.810;2023-04-23T06:35:39;5.20;;;4.40;;
43883;SDS011;29544;52.018;5.810;2023-04-23T06:38:05;5.83;;;4.30;;
43883;SDS011;29544;52.018;5.810;2023-04-23T06:40:31;5.17;;;4.27;;
43883;SDS011;29544;52.018;5.810;2023-04-23T06:42:57;5.03;;;4.50;;
43883;SDS011;29544;52.018;5.810;2023-04-23T06:45:23;4.40;;;4.00;;
43883;SDS011;29544;52.018;5.810;2023-04-23T06:47:48;4.60;;;4.20;;
43883;SDS011;29544;52.018;5.810;2023-04-23T06:50:14;5.30;;;4.70;;
43883;SDS011;29544;52.018;5.810;2023-04-23T06:52:40;4.47;;;3.67;;
43883;SDS011;29544;52.018;5.810;2023-04-23T06:55:06;6.78;;;3.92;;
43883;SDS011;29544;52.018;5.810;2023-04-23T06:57:32;5.93;;;4.10;;
43883;SDS011;29544;52.018;5.810;2023-04-23T06:59:58;6.30;;;4.17;;
43883;SDS011;29544;52.018;5.810;2023-04-23T07:02:24;6.43;;;3.90;;
43883;SDS011;29544;52.018;5.810;2023-04-23T07:04:50;5.75;;;4.30;;
43883;SDS011;29544;52.018;5.810;2023-04-23T07:07:15;4.57;;;4.17;;
43883;SDS011;29544;52.018;5.810;2023-04-23T07:09:41;4.60;;;4.10;;
43883;SDS011;29544;52.018;5.810;2023-04-23T07:12:07;5.10;;;3.70;;
43883;SDS011;29544;52.018;5.810;2023-04-23T07:14:33;4.97;;;3.30;;
43883;SDS011;29544;52.018;5.810;2023-04-23T07:16:58;4.03;;;3.47;;
43883;SDS011;29544;52.018;5.810;2023-04-23T07:19:24;4.30;;;3.53;;
43883;SDS011;29544;52.018;5.810;2023-04-23T07:21:49;4.73;;;4.00;;
43883;SDS011;29544;52.018;5.810;2023-04-23T07:24:15;4.50;;;3.50;;
43883;SDS011;29544;52.018;5.810;2023-04-23T07:26:41;4.07;;;3.17;;
43883;SDS011;29544;52.018;5.810;2023-04-23T07:29:06;4.57;;;3.70;;
43883;SDS011;29544;52.018;5.810;2023-04-23T07:31:34;5.00;;;3.40;;
43883;SDS011;29544;52.018;5.810;2023-04-23T07:34:00;4.50;;;3.38;;
43883;SDS011;29544;52.018;5.810;2023-04-23T07:36:26;4.20;;;3.50;;
43883;SDS011;29544;52.018;5.810;2023-04-23T07:38:51;5.17;;;3.50;;
43883;SDS011;29544;52.018;5.810;2023-04-23T07:41:17;4.20;;;3.10;;
43883;SDS011;29544;52.018;5.810;2023-04-23T07:43:43;4.83;;;3.33;;
43883;SDS011;29544;52.018;5.810;2023-04-23T07:46:08;5.80;;;3.30;;
43883;SDS011;29544;52.018;5.810;2023-04-23T07:48:34;4.17;;;3.17;;
43883;SDS011;29544;52.018;5.810;2023-04-23T07:51:00;4.10;;;2.80;;
43883;SDS011;29544;52.018;5.810;2023-04-23T07:53:26;5.05;;;3.25;;
43883;SDS011;29544;52.018;5.810;2023-04-23T07:55:52;3.92;;;2.78;;
43883;SDS011;29544;52.018;5.810;2023-04-23T07:58:19;3.25;;;2.60;;
43883;SDS011;29544;52.018;5.810;2023-04-23T08:00:45;3.20;;;2.90;;
43883;SDS011;29544;52.018;5.810;2023-04-23T08:03:10;3.60;;;3.07;;
43883;SDS011;29544;52.018;5.810;2023-04-23T08:05:36;4.00;;;3.00;;
43883;SDS011;29544;52.018;5.810;2023-04-23T08:10:28;3.63;;;2.80;;
43883;SDS011;29544;52.018;5.810;2023-04-23T08:12:54;3.50;;;3.20;;
43883;SDS011;29544;52.018;5.810;2023-04-23T08:15:19;3.67;;;2.93;;
43883;SDS011;29544;52.018;5.810;2023-04-23T08:17:45;4.10;;;2.67;;
43883;SDS011;29544;52.018;5.810;2023-04-23T08:20:10;2.53;;;2.20;;
43883;SDS011;29544;52.018;5.810;2023-04-23T08:22:36;8.97;;;2.73;;
43883;SDS011;29544;52.018;5.810;2023-04-23T08:25:01;7.17;;;2.80;;
43883;SDS011;29544;52.018;5.810;2023-04-23T08:27:28;4.00;;;2.65;;
43883;SDS011;29544;52.018;5.810;2023-04-23T08:29:54;6.28;;;2.50;;
43883;SDS011;29544;52.018;5.810;2023-04-23T08:32:20;3.53;;;2.63;;
43883;SDS011;29544;52.018;5.810;2023-04-23T08:34:45;5.50;;;2.90;;
43883;SDS011;29544;52.018;5.810;2023-04-23T08:37:11;5.97;;;2.50;;
43883;SDS011;29544;52.018;5.810;2023-04-23T08:39:36;3.07;;;2.60;;
43883;SDS011;29544;52.018;5.810;2023-04-23T08:42:16;3.33;;;2.43;;
43883;SDS011;29544;52.018;5.810;2023-04-23T08:44:47;6.32;;;2.65;;
43883;SDS011;29544;52.018;5.810;2023-04-23T08:47:16;4.90;;;1.90;;
43883;SDS011;29544;52.018;5.810;2023-04-23T08:49:42;5.45;;;2.58;;
43883;SDS011;29544;52.018;5.810;2023-04-23T08:52:17;10.02;;;2.50;;
43883;SDS011;29544;52.018;5.810;2023-04-23T08:54:48;5.75;;;2.90;;
43883;SDS011;29544;52.018;5.810;2023-04-23T08:57:16;6.97;;;2.70;;
43883;SDS011;29544;52.018;5.810;2023-04-23T08:59:43;3.65;;;2.30;;
43883;SDS011;29544;52.018;5.810;2023-04-23T09:02:11;3.17;;;2.05;;
43883;SDS011;29544;52.018;5.810;2023-04-23T09:04:37;3.92;;;2.33;;
43883;SDS011;29544;52.018;5.810;2023-04-23T09:07:03;3.53;;;2.50;;
43883;SDS011;29544;52.018;5.810;2023-04-23T09:09:29;7.72;;;2.47;;
43883;SDS011;29544;52.018;5.810;2023-04-23T09:11:55;4.40;;;2.30;;
43883;SDS011;29544;52.018;5.810;2023-04-23T09:14:21;4.35;;;2.28;;
43883;SDS011;29544;52.018;5.810;2023-04-23T09:16:49;6.82;;;2.22;;
43883;SDS011;29544;52.018;5.810;2023-04-23T09:19:16;3.25;;;1.75;;
43883;SDS011;29544;52.018;5.810;2023-04-23T09:21:42;5.38;;;2.00;;
43883;SDS011;29544;52.018;5.810;2023-04-23T09:24:10;5.45;;;2.22;;
43883;SDS011;29544;52.018;5.810;2023-04-23T09:26:47;3.05;;;1.88;;
43883;SDS011;29544;52.018;5.810;2023-04-23T09:29:18;4.00;;;1.90;;
43883;SDS011;29544;52.018;5.810;2023-04-23T09:31:45;2.75;;;1.98;;
43883;SDS011;29544;52.018;5.810;2023-04-23T09:34:15;4.43;;;2.20;;
43883;SDS011;29544;52.018;5.810;2023-04-23T09:36:46;3.83;;;1.95;;
43883;SDS011;29544;52.018;5.810;2023-04-23T09:39:16;4.00;;;2.17;;
43883;SDS011;29544;52.018;5.810;2023-04-23T09:41:44;3.03;;;1.83;;
43883;SDS011;29544;52.018;5.810;2023-04-23T09:44:10;5.18;;;1.95;;
43883;SDS011;29544;52.018;5.810;2023-04-23T09:46:38;3.72;;;2.30;;
43883;SDS011;29544;52.018;5.810;2023-04-23T09:49:08;3.75;;;1.60;;
43883;SDS011;29544;52.018;5.810;2023-04-23T09:51:41;6.47;;;2.33;;
43883;SDS011;29544;52.018;5.810;2023-04-23T09:54:12;4.47;;;2.00;;
43883;SDS011;29544;52.018;5.810;2023-04-23T09:56:39;4.70;;;2.10;;
43883;SDS011;29544;52.018;5.810;2023-04-23T09:59:27;2.60;;;1.73;;
43883;SDS011;29544;52.018;5.810;2023-04-23T10:01:52;2.97;;;1.67;;
43883;SDS011;29544;52.018;5.810;2023-04-23T10:04:18;5.78;;;1.83;;
43883;SDS011;29544;52.018;5.810;2023-04-23T10:06:47;4.50;;;1.60;;
43883;SDS011;29544;52.018;5.810;2023-04-23T10:09:17;3.20;;;1.55;;
43883;SDS011;29544;52.018;5.810;2023-04-23T10:11:47;4.07;;;1.50;;
43883;SDS011;29544;52.018;5.810;2023-04-23T10:14:15;3.03;;;1.50;;
43883;SDS011;29544;52.018;5.810;2023-04-23T10:16:40;3.17;;;1.67;;
43883;SDS011;29544;52.018;5.810;2023-04-23T10:19:10;3.08;;;1.73;;
43883;SDS011;29544;52.018;5.810;2023-04-23T10:21:39;3.00;;;1.60;;
43883;SDS011;29544;52.018;5.810;2023-04-23T10:24:06;2.92;;;1.60;;
43883;SDS011;29544;52.018;5.810;2023-04-23T10:26:35;1.83;;;1.20;;
43883;SDS011;29544;52.018;5.810;2023-04-23T10:29:03;4.72;;;1.83;;
43883;SDS011;29544;52.018;5.810;2023-04-23T10:31:33;5.43;;;1.58;;
43883;SDS011;29544;52.018;5.810;2023-04-23T10:34:00;4.85;;;2.00;;
43883;SDS011;29544;52.018;5.810;2023-04-23T10:36:29;7.20;;;1.88;;
43883;SDS011;29544;52.018;5.810;2023-04-23T10:38:57;3.50;;;1.63;;
43883;SDS011;29544;52.018;5.810;2023-04-23T10:41:28;4.13;;;1.83;;
43883;SDS011;29544;52.018;5.810;2023-04-23T10:44:04;3.50;;;1.48;;
43883;SDS011;29544;52.018;5.810;2023-04-23T10:46:31;5.00;;;1.73;;
43883;SDS011;29544;52.018;5.810;2023-04-23T10:51:36;9.70;;;1.95;;
43883;SDS011;29544;52.018;5.810;2023-04-23T10:54:02;3.65;;;1.45;;
43883;SDS011;29544;52.018;5.810;2023-04-23T10:56:28;4.93;;;1.83;;
43883;SDS011;29544;52.018;5.810;2023-04-23T10:58:54;3.07;;;1.53;;
43883;SDS011;29544;52.018;5.810;2023-04-23T11:01:19;2.87;;;1.33;;
43883;SDS011;29544;52.018;5.810;2023-04-23T11:03:57;6.80;;;1.65;;
43883;SDS011;29544;52.018;5.810;2023-04-23T11:11:56;3.08;;;1.33;;
43883;SDS011;29544;52.018;5.810;2023-04-23T11:14:36;2.80;;;1.20;;
43883;SDS011;29544;52.018;5.810;2023-04-23T11:17:06;2.55;;;1.38;;
43883;SDS011;29544;52.018;5.810;2023-04-23T11:19:35;4.00;;;1.47;;
43883;SDS011;29544;52.018;5.810;2023-04-23T11:22:14;3.40;;;1.80;;
43883;SDS011;29544;52.018;5.810;2023-04-23T11:24:44;3.95;;;1.60;;
43883;SDS011;29544;52.018;5.810;2023-04-23T11:27:11;5.72;;;2.03;;
43883;SDS011;29544;52.018;5.810;2023-04-23T11:29:39;4.47;;;1.40;;
43883;SDS011;29544;52.018;5.810;2023-04-23T11:32:05;6.15;;;1.58;;
43883;SDS011;29544;52.018;5.810;2023-04-23T11:34:35;4.47;;;1.13;;
43883;SDS011;29544;52.018;5.810;2023-04-23T11:37:01;5.03;;;1.20;;
43883;SDS011;29544;52.018;5.810;2023-04-23T11:39:27;4.37;;;1.43;;
43883;SDS011;29544;52.018;5.810;2023-04-23T11:41:52;4.40;;;1.50;;
43883;SDS011;29544;52.018;5.810;2023-04-23T11:44:21;6.53;;;1.75;;
43883;SDS011;29544;52.018;5.810;2023-04-23T11:46:47;4.72;;;1.35;;
43883;SDS011;29544;52.018;5.810;2023-04-23T11:51:40;4.78;;;1.38;;
43883;SDS011;29544;52.018;5.810;2023-04-23T11:54:07;5.32;;;1.65;;
43883;SDS011;29544;52.018;5.810;2023-04-23T11:56:33;3.75;;;1.27;;
43883;SDS011;29544;52.018;5.810;2023-04-23T11:59:03;1.73;;;1.10;;
43883;SDS011;29544;52.018;5.810;2023-04-23T12:01:42;3.88;;;1.40;;
43883;SDS011;29544;52.018;5.810;2023-04-23T12:04:17;4.28;;;1.67;;
43883;SDS011;29544;52.018;5.810;2023-04-23T12:06:44;3.83;;;1.15;;
43883;SDS011;29544;52.018;5.810;2023-04-23T12:09:11;4.50;;;1.30;;
43883;SDS011;29544;52.018;5.810;2023-04-23T12:11:38;2.42;;;1.10;;
43883;SDS011;29544;52.018;5.810;2023-04-23T12:14:05;3.45;;;1.17;;
43883;SDS011;29544;52.018;5.810;2023-04-23T12:16:36;4.00;;;1.15;;
43883;SDS011;29544;52.018;5.810;2023-04-23T12:19:03;4.15;;;1.38;;
43883;SDS011;29544;52.018;5.810;2023-04-23T12:21:49;6.68;;;1.35;;
43883;SDS011;29544;52.018;5.810;2023-04-23T12:24:20;3.28;;;1.10;;
43883;SDS011;29544;52.018;5.810;2023-04-23T12:26:50;3.35;;;1.15;;
43883;SDS011;29544;52.018;5.810;2023-04-23T12:29:18;3.55;;;1.20;;
43883;SDS011;29544;52.018;5.810;2023-04-23T12:34:11;2.90;;;1.08;;
43883;SDS011;29544;52.018;5.810;2023-04-23T12:36:42;3.65;;;1.20;;
43883;SDS011;29544;52.018;5.810;2023-04-23T12:41:46;2.73;;;1.20;;
43883;SDS011;29544;52.018;5.810;2023-04-23T12:44:13;4.57;;;1.58;;
43883;SDS011;29544;52.018;5.810;2023-04-23T12:46:38;3.37;;;1.20;;
43883;SDS011;29544;52.018;5.810;2023-04-23T12:49:04;2.73;;;1.37;;
43883;SDS011;29544;52.018;5.810;2023-04-23T12:51:30;4.22;;;1.40;;
43883;SDS011;29544;52.018;5.810;2023-04-23T12:53:55;3.83;;;1.27;;
43883;SDS011;29544;52.018;5.810;2023-04-23T12:56:21;3.50;;;1.43;;
43883;SDS011;29544;52.018;5.810;2023-04-23T12:58:46;5.80;;;1.80;;
43883;SDS011;29544;52.018;5.810;2023-04-23T13:01:12;4.97;;;1.40;;
43883;SDS011;29544;52.018;5.810;2023-04-23T13:03:38;4.75;;;1.60;;
43883;SDS011;29544;52.018;5.810;2023-04-23T13:06:04;3.70;;;1.50;;
43883;SDS011;29544;52.018;5.810;2023-04-23T13:08:31;4.00;;;1.23;;
43883;SDS011;29544;52.018;5.810;2023-04-23T13:10:57;4.30;;;1.60;;
43883;SDS011;29544;52.018;5.810;2023-04-23T13:13:24;4.50;;;1.52;;
43883;SDS011;29544;52.018;5.810;2023-04-23T13:15:51;4.18;;;1.20;;
43883;SDS011;29544;52.018;5.810;2023-04-23T13:18:16;4.55;;;1.52;;
43883;SDS011;29544;52.018;5.810;2023-04-23T13:20:42;2.83;;;0.90;;
43883;SDS011;29544;52.018;5.810;2023-04-23T13:23:07;3.40;;;1.40;;
43883;SDS011;29544;52.018;5.810;2023-04-23T13:25:35;3.85;;;1.23;;
43883;SDS011;29544;52.018;5.810;2023-04-23T13:28:00;2.77;;;1.10;;
43883;SDS011;29544;52.018;5.810;2023-04-23T13:30:26;5.20;;;1.40;;
43883;SDS011;29544;52.018;5.810;2023-04-23T13:32:51;5.60;;;1.10;;
43883;SDS011;29544;52.018;5.810;2023-04-23T13:35:17;4.63;;;1.40;;
43883;SDS011;29544;52.018;5.810;2023-04-23T13:37:43;9.83;;;1.47;;
43883;SDS011;29544;52.018;5.810;2023-04-23T13:40:09;3.50;;;1.30;;
43883;SDS011;29544;52.018;5.810;2023-04-23T13:42:34;3.15;;;1.05;;
43883;SDS011;29544;52.018;5.810;2023-04-23T13:45:00;3.60;;;1.13;;
43883;SDS011;29544;52.018;5.810;2023-04-23T13:47:28;5.30;;;1.60;;
43883;SDS011;29544;52.018;5.810;2023-04-23T13:49:57;3.15;;;1.00;;
43883;SDS011;29544;52.018;5.810;2023-04-23T13:52:23;5.05;;;1.20;;
43883;SDS011;29544;52.018;5.810;2023-04-23T13:54:48;4.53;;;1.00;;
43883;SDS011;29544;52.018;5.810;2023-04-23T13:59:40;8.10;;;1.50;;
43883;SDS011;29544;52.018;5.810;2023-04-23T14:02:06;4.30;;;1.23;;
43883;SDS011;29544;52.018;5.810;2023-04-23T14:04:31;2.80;;;1.17;;
43883;SDS011;29544;52.018;5.810;2023-04-23T14:06:57;4.03;;;1.50;;
43883;SDS011;29544;52.018;5.810;2023-04-23T14:09:22;3.47;;;1.00;;
43883;SDS011;29544;52.018;5.810;2023-04-23T14:11:48;4.50;;;1.30;;
43883;SDS011;29544;52.018;5.810;2023-04-23T14:14:14;3.83;;;1.43;;
43883;SDS011;29544;52.018;5.810;2023-04-23T14:16:40;3.90;;;1.38;;
43883;SDS011;29544;52.018;5.810;2023-04-23T14:19:06;2.83;;;1.50;;
43883;SDS011;29544;52.018;5.810;2023-04-23T14:21:31;2.87;;;0.97;;
43883;SDS011;29544;52.018;5.810;2023-04-23T14:24:00;3.85;;;1.25;;
43883;SDS011;29544;52.018;5.810;2023-04-23T14:29:07;4.35;;;1.25;;
43883;SDS011;29544;52.018;5.810;2023-04-23T14:31:35;3.30;;;1.10;;
43883;SDS011;29544;52.018;5.810;2023-04-23T14:34:02;3.53;;;1.08;;
43883;SDS011;29544;52.018;5.810;2023-04-23T14:36:30;4.20;;;1.50;;
43883;SDS011;29544;52.018;5.810;2023-04-23T14:38:56;3.77;;;1.20;;
43883;SDS011;29544;52.018;5.810;2023-04-23T14:41:26;3.17;;;1.08;;
43883;SDS011;29544;52.018;5.810;2023-04-23T14:43:51;2.53;;;0.83;;
43883;SDS011;29544;52.018;5.810;2023-04-23T14:46:17;2.97;;;1.07;;
43883;SDS011;29544;52.018;5.810;2023-04-23T14:48:42;4.17;;;1.07;;
43883;SDS011;29544;52.018;5.810;2023-04-23T14:51:08;2.50;;;0.93;;
43883;SDS011;29544;52.018;5.810;2023-04-23T14:53:34;4.57;;;1.70;;
43883;SDS011;29544;52.018;5.810;2023-04-23T14:55:59;4.43;;;1.30;;
43883;SDS011;29544;52.018;5.810;2023-04-23T14:58:25;24.43;;;3.30;;
43883;SDS011;29544;52.018;5.810;2023-04-23T15:00:50;10.00;;;2.10;;
43883;SDS011;29544;52.018;5.810;2023-04-23T15:03:16;12.10;;;2.00;;
43883;SDS011;29544;52.018;5.810;2023-04-23T15:05:41;13.77;;;2.33;;
43883;SDS011;29544;52.018;5.810;2023-04-23T15:08:07;13.10;;;2.17;;
43883;SDS011;29544;52.018;5.810;2023-04-23T15:10:33;10.67;;;2.23;;
43883;SDS011;29544;52.018;5.810;2023-04-23T15:13:05;8.80;;;1.70;;
43883;SDS011;29544;52.018;5.810;2023-04-23T15:15:43;9.13;;;2.40;;
43883;SDS011;29544;52.018;5.810;2023-04-23T15:18:18;11.25;;;2.83;;